Time;durP1;ratioP1;P1;durP2;ratioP2;P2;SDS_P1;SDS_P2;PMS_P1;PMS_P2;Temp;Humidity;BMP_temperature;BMP_pressure;BME280_temperature;BME280_humidity;BME280_pressure;Samples;Min_cycle;Max_cycle;Signal;HPM_P1;HPM_P2
2023/08/02 00:00:27;;;;;;;10.88;4.18;;;;;;;28.41;48.55;95728.22;5023594;28;20051;-30
2023/08/02 00:02:53;;;;;;;9.60;4.53;;;;;;;28.45;48.61;95736.94;5025744;28;20057;-31
2023/08/02 00:05:19;;;;;;;7.05;4.20;;;;;;;28.43;48.51;95731.94;5026463;28;20097;-30
2023/08/02 00:07:44;;;;;;;8.52;3.75;;;;;;;28.42;49.01;95738.06;5025622;28;20477;-30
2023/08/02 00:10:09;;;;;;;8.48;3.83;;;;;;;28.56;48.70;95739.31;5023576;28;20541;-30
2023/08/02 00:12:35;;;;;;;8.30;4.22;;;;;;;28.42;48.90;95744.41;5023112;28;20033;-30
2023/08/02 00:15:01;;;;;;;8.63;4.10;;;;;;;28.73;48.66;95744.28;5024323;28;20021;-30
2023/08/02 00:17:26;;;;;;;8.40;4.47;;;;;;;28.75;48.85;95731.25;5021672;28;20038;-29
2023/08/02 00:19:52;;;;;;;8.57;4.38;;;;;;;28.92;47.89;95736.97;5023355;28;20060;-31
2023/08/02 00:22:17;;;;;;;10.93;4.40;;;;;;;28.78;48.53;95732.94;5023231;28;20404;-30
2023/08/02 00:24:42;;;;;;;10.50;3.90;;;;;;;28.71;49.12;95742.03;5016188;28;20026;-29
2023/08/02 00:27:08;;;;;;;9.57;4.20;;;;;;;28.72;48.98;95749.09;5022139;28;20505;-30
2023/08/02 00:29:34;;;;;;;9.07;4.35;;;;;;;28.84;48.25;95750.19;5022934;28;20045;-30
2023/08/02 00:31:59;;;;;;;10.23;3.90;;;;;;;28.79;48.30;95745.59;5015781;28;20067;-32
2023/08/02 00:34:26;;;;;;;10.65;3.95;;;;;;;28.59;48.74;95752.13;5026055;28;20022;-29
2023/08/02 00:36:51;;;;;;;13.10;4.72;;;;;;;28.75;48.54;95753.56;5020358;28;20029;-30
2023/08/02 00:39:18;;;;;;;10.48;4.03;;;;;;;28.73;48.86;95755.44;5023135;28;20057;-30
2023/08/02 00:41:43;;;;;;;9.30;4.40;;;;;;;28.61;48.79;95752.31;5021668;28;20041;-29
2023/08/02 00:44:09;;;;;;;7.53;4.15;;;;;;;28.52;49.45;95752.91;5022947;28;20029;-30
2023/08/02 00:46:34;;;;;;;10.23;4.53;;;;;;;28.68;49.07;95754.34;5023074;28;20045;-29
2023/08/02 00:49:00;;;;;;;9.38;4.13;;;;;;;28.61;49.48;95752.31;5022970;28;20057;-29
2023/08/02 00:51:30;;;;;;;10.57;4.57;;;;;;;28.77;48.99;95750.22;5023207;28;20025;-30
2023/08/02 00:53:56;;;;;;;9.13;4.78;;;;;;;28.72;49.15;95748.34;5025733;28;20049;-30
2023/08/02 00:56:22;;;;;;;12.82;4.07;;;;;;;28.88;48.56;95742.19;5025255;28;20029;-29
2023/08/02 00:58:47;;;;;;;7.55;4.25;;;;;;;28.61;49.03;95746.72;5022901;28;20056;-29
2023/08/02 01:01:13;;;;;;;8.10;4.18;;;;;;;28.63;49.18;95740.59;5021480;28;20422;-30
2023/08/02 01:03:46;;;;;;;7.55;4.13;;;;;;;28.57;49.12;95744.31;5016306;28;20504;-29
2023/08/02 01:06:44;;;;;;;7.90;4.03;;;;;;;28.66;48.87;95750.63;5025679;28;20013;-30
2023/08/02 01:09:50;;;;;;;8.27;4.57;;;;;;;28.65;49.05;95763.09;5019153;28;20013;-30
2023/08/02 01:12:19;;;;;;;8.68;3.95;;;;;;;28.64;49.10;95747.66;5020909;28;20042;-29
2023/08/02 01:14:49;;;;;;;8.05;4.07;;;;;;;28.57;49.26;95749.16;5021902;28;20025;-30
2023/08/02 01:17:15;;;;;;;8.65;4.50;;;;;;;28.63;49.63;95746.91;5018899;28;20041;-30
2023/08/02 01:19:42;;;;;;;10.05;4.28;;;;;;;28.78;48.75;95740.53;5026022;28;20026;-31
2023/08/02 01:22:08;;;;;;;9.18;4.53;;;;;;;28.81;48.87;95731.78;5024322;28;20037;-30
2023/08/02 01:24:35;;;;;;;11.90;4.70;;;;;;;28.58;49.14;95739.47;5027106;28;20069;-30
2023/08/02 01:27:07;;;;;;;6.13;4.20;;;;;;;28.81;48.89;95733.84;5021377;28;20108;-30
2023/08/02 01:29:35;;;;;;;12.38;4.65;;;;;;;28.87;48.39;95740.69;5020893;28;20021;-30
2023/08/02 01:32:02;;;;;;;11.00;4.78;;;;;;;28.64;49.13;95742.06;5028988;28;20079;-30
2023/08/02 01:34:29;;;;;;;12.35;4.32;;;;;;;28.45;49.59;95734.13;5017527;28;20027;-31
2023/08/02 01:36:55;;;;;;;9.48;4.28;;;;;;;28.73;49.37;95744.28;5024241;28;20059;-30
2023/08/02 01:39:20;;;;;;;10.82;4.40;;;;;;;28.65;49.19;95741.53;5021049;28;20478;-31
2023/08/02 01:41:46;;;;;;;11.13;4.35;;;;;;;28.57;49.44;95738.00;5030915;28;20409;-29
2023/08/02 01:44:11;;;;;;;9.27;4.68;;;;;;;28.69;49.05;95735.53;5015940;28;20032;-31
2023/08/02 01:46:36;;;;;;;10.15;4.53;;;;;;;28.62;48.81;95742.63;5015036;28;20060;-31
2023/08/02 01:49:02;;;;;;;12.60;5.57;;;;;;;28.50;49.68;95744.34;5021789;28;20501;-29
2023/08/02 01:51:27;;;;;;;12.80;5.18;;;;;;;28.63;48.89;95741.34;5022338;28;20132;-29
2023/08/02 01:53:53;;;;;;;9.40;4.03;;;;;;;28.55;49.12;95735.78;5024623;28;20022;-30
2023/08/02 01:56:18;;;;;;;8.52;4.72;;;;;;;28.63;49.36;95738.53;5024416;28;20021;-29
2023/08/02 01:58:44;;;;;;;7.68;4.78;;;;;;;28.44;49.66;95730.59;5021046;28;20112;-30
2023/08/02 02:01:09;;;;;;;11.95;5.07;;;;;;;28.37;49.64;95722.28;5020218;28;20086;-29
2023/08/02 02:03:35;;;;;;;14.10;4.82;;;;;;;28.62;49.24;95714.00;5021249;28;20056;-29
2023/08/02 02:06:00;;;;;;;7.95;4.45;;;;;;;28.58;49.15;95719.97;5017780;28;20353;-30
2023/08/02 02:08:26;;;;;;;9.55;4.78;;;;;;;28.51;49.26;95723.53;5017860;28;20021;-29
2023/08/02 02:10:53;;;;;;;9.60;4.60;;;;;;;28.47;48.95;95720.38;5022406;28;20552;-29
2023/08/02 02:13:19;;;;;;;9.68;4.30;;;;;;;28.36;49.22;95718.00;5019487;28;20021;-30
2023/08/02 02:15:45;;;;;;;7.55;4.45;;;;;;;28.27;49.93;95724.16;5021060;28;20072;-30
2023/08/02 02:18:10;;;;;;;7.15;4.55;;;;;;;28.46;49.54;95722.41;5021645;28;20535;-29
2023/08/02 02:20:36;;;;;;;12.45;4.82;;;;;;;28.57;49.17;95726.84;5021228;28;20050;-31
2023/08/02 02:23:01;;;;;;;9.18;4.35;;;;;;;28.65;48.87;95722.00;5021175;28;20487;-30
2023/08/02 02:25:26;;;;;;;9.68;5.05;;;;;;;28.44;49.04;95722.22;5021149;28;20014;-29
2023/08/02 02:27:52;;;;;;;13.80;5.10;;;;;;;28.46;49.06;95732.84;5020631;28;20403;-29
2023/08/02 02:30:18;;;;;;;10.93;5.07;;;;;;;28.45;49.37;95725.78;5022822;28;20018;-31
2023/08/02 02:32:44;;;;;;;12.55;4.70;;;;;;;28.40;49.36;95716.31;5025995;28;20034;-31
2023/08/02 02:35:14;;;;;;;8.43;4.30;;;;;;;28.54;48.93;95722.41;5014319;28;20022;-30
2023/08/02 02:37:40;;;;;;;12.45;5.22;;;;;;;28.47;49.70;95718.31;5027307;28;20026;-30
2023/08/02 02:40:06;;;;;;;11.82;4.68;;;;;;;28.49;49.26;95717.78;5020885;28;20473;-30
2023/08/02 02:42:32;;;;;;;12.45;4.57;;;;;;;28.50;49.33;95728.38;5027930;28;20041;-31
2023/08/02 02:44:57;;;;;;;8.70;4.60;;;;;;;28.44;49.13;95721.50;5013512;28;20421;-30
2023/08/02 02:47:23;;;;;;;11.55;5.60;;;;;;;28.41;49.13;95708.69;5020677;28;20036;-30
2023/08/02 02:49:48;;;;;;;12.18;4.88;;;;;;;28.09;49.79;95710.03;5012924;28;20428;-30
2023/08/02 02:52:14;;;;;;;11.27;4.80;;;;;;;28.06;49.91;95702.81;5014033;28;20467;-29
2023/08/02 02:54:39;;;;;;;11.43;5.47;;;;;;;28.08;49.74;95708.56;5020353;28;20036;-30
2023/08/02 02:57:05;;;;;;;12.57;4.88;;;;;;;28.09;49.78;95710.03;5020828;28;20084;-29
2023/08/02 02:59:32;;;;;;;10.98;4.60;;;;;;;28.02;50.11;95712.84;5019973;28;20026;-29
2023/08/02 03:01:58;;;;;;;8.90;4.60;;;;;;;28.31;49.53;95705.00;5023448;28;20412;-29
2023/08/02 03:04:24;;;;;;;13.65;4.70;;;;;;;28.34;49.37;95715.78;5017333;28;20105;-30
2023/08/02 03:06:51;;;;;;;9.75;4.30;;;;;;;28.30;49.62;95718.22;5020835;28;20223;-29
2023/08/02 03:09:17;;;;;;;13.95;4.82;;;;;;;28.44;49.21;95713.88;5020655;28;20432;-30
2023/08/02 03:11:42;;;;;;;8.10;4.55;;;;;;;28.19;49.32;95716.53;5020238;28;20096;-31
2023/08/02 03:14:08;;;;;;;11.30;4.80;;;;;;;28.04;49.51;95724.94;5016040;28;20381;-29
2023/08/02 03:16:34;;;;;;;11.70;4.75;;;;;;;28.24;49.70;95718.41;5023669;28;20021;-29
2023/08/02 03:18:59;;;;;;;12.77;5.03;;;;;;;28.28;49.82;95729.19;5014630;28;20038;-29
2023/08/02 03:21:25;;;;;;;13.35;4.78;;;;;;;28.40;48.80;95715.56;5023819;28;20033;-30
2023/08/02 03:23:50;;;;;;;13.30;4.65;;;;;;;28.16;49.83;95722.50;5015930;28;20546;-31
2023/08/02 03:26:15;;;;;;;12.95;4.50;;;;;;;28.30;49.60;95725.84;5019812;28;20033;-30
2023/08/02 03:28:41;;;;;;;11.90;4.68;;;;;;;28.14;49.66;95720.25;5017571;28;20025;-30
2023/08/02 03:31:06;;;;;;;13.88;4.93;;;;;;;27.94;49.84;95718.47;5014476;28;20018;-29
2023/08/02 03:33:32;;;;;;;12.70;4.60;;;;;;;28.23;49.39;95722.50;5020438;28;20581;-30
2023/08/02 03:35:57;;;;;;;13.27;4.78;;;;;;;28.13;49.89;95715.25;5020271;28;20056;-31
2023/08/02 03:38:23;;;;;;;12.48;4.90;;;;;;;28.14;49.96;95711.91;5022341;28;20096;-30
2023/08/02 03:40:48;;;;;;;12.55;4.65;;;;;;;28.18;49.40;95715.09;5023672;28;20029;-30
2023/08/02 03:43:13;;;;;;;11.70;4.38;;;;;;;28.17;50.21;95718.41;5021684;28;20018;-30
2023/08/02 03:45:39;;;;;;;11.60;4.40;;;;;;;28.22;49.72;95714.69;5020071;28;20105;-31
2023/08/02 03:48:04;;;;;;;7.15;4.53;;;;;;;28.30;49.34;95709.84;5019139;28;20050;-30
2023/08/02 03:50:32;;;;;;;11.05;4.95;;;;;;;28.27;49.28;95704.66;5020932;28;20047;-30
2023/08/02 03:52:58;;;;;;;9.50;4.63;;;;;;;27.94;50.23;95707.31;5020372;28;20030;-30
2023/08/02 03:55:24;;;;;;;9.93;4.68;;;;;;;28.21;49.29;95702.78;5027249;28;20075;-29
2023/08/02 03:57:49;;;;;;;14.63;4.85;;;;;;;28.12;49.57;95706.13;5019877;28;20370;-29
2023/08/02 04:00:15;;;;;;;9.43;4.40;;;;;;;28.27;49.62;95701.84;5019787;28;20071;-30
2023/08/02 04:02:40;;;;;;;14.48;4.50;;;;;;;28.28;49.28;95706.13;5021534;28;20488;-31
2023/08/02 04:05:06;;;;;;;12.35;4.47;;;;;;;28.32;49.66;95700.91;5023530;28;20022;-30
2023/08/02 04:07:31;;;;;;;14.93;4.78;;;;;;;28.13;49.64;95692.94;5023888;28;20381;-30
2023/08/02 04:09:57;;;;;;;16.50;4.75;;;;;;;28.01;50.26;95697.44;5026353;28;20497;-30
2023/08/02 04:12:22;;;;;;;17.35;5.13;;;;;;;28.14;49.86;95697.97;5026617;28;20029;-30
2023/08/02 04:14:48;;;;;;;11.50;4.50;;;;;;;28.16;49.62;95689.78;5025116;28;20029;-29
2023/08/02 04:17:13;;;;;;;12.52;4.57;;;;;;;28.16;49.47;95692.56;5026601;28;20025;-29
2023/08/02 04:19:39;;;;;;;8.93;4.60;;;;;;;28.00;50.13;95699.47;5027057;28;20484;-30
2023/08/02 04:22:04;;;;;;;9.38;4.13;;;;;;;28.12;49.74;95695.00;5023606;28;20025;-30
2023/08/02 04:24:30;;;;;;;9.85;4.40;;;;;;;28.05;49.78;95703.38;5020703;28;20078;-29
2023/08/02 04:26:56;;;;;;;9.57;4.70;;;;;;;27.96;50.04;95704.69;5018270;28;20062;-30
2023/08/02 04:29:22;;;;;;;10.35;5.15;;;;;;;28.12;49.16;95697.78;5030063;28;20091;-31
2023/08/02 04:31:47;;;;;;;10.15;4.50;;;;;;;28.09;49.85;95703.72;5023486;28;20486;-29
2023/08/02 04:34:12;;;;;;;14.45;4.28;;;;;;;28.00;49.67;95691.13;5029959;28;20029;-30
2023/08/02 04:36:38;;;;;;;11.82;4.30;;;;;;;28.01;49.61;95695.41;5015690;28;20034;-30
2023/08/02 04:39:06;;;;;;;9.73;4.15;;;;;;;27.84;50.13;95707.13;5023012;28;20029;-29
2023/08/02 04:41:32;;;;;;;9.85;4.90;;;;;;;28.00;49.89;95709.88;5023273;28;20032;-30
2023/08/02 04:43:57;;;;;;;11.68;4.63;;;;;;;28.02;49.53;95705.25;5022429;28;20024;-29
2023/08/02 04:46:25;;;;;;;10.52;4.25;;;;;;;28.05;49.64;95706.91;5021296;28;20113;-30
2023/08/02 04:48:50;;;;;;;11.00;4.57;;;;;;;27.83;50.48;95718.81;5026765;28;20049;-30
2023/08/02 04:51:16;;;;;;;12.57;5.18;;;;;;;28.06;49.88;95719.56;5025999;28;20544;-30
2023/08/02 04:53:43;;;;;;;13.90;4.90;;;;;;;28.05;49.71;95725.69;5022515;28;20417;-29
2023/08/02 04:56:09;;;;;;;14.30;4.05;;;;;;;28.01;50.13;95726.06;5021241;28;20075;-29
2023/08/02 04:58:35;;;;;;;17.27;4.70;;;;;;;28.11;49.70;95743.69;5025094;28;20477;-29
2023/08/02 05:01:02;;;;;;;9.35;4.40;;;;;;;28.11;49.81;95738.09;5025909;28;20018;-31
2023/08/02 05:03:27;;;;;;;12.85;5.28;;;;;;;28.16;49.93;95739.97;5025363;28;20013;-29
2023/08/02 05:05:58;;;;;;;13.25;5.70;;;;;;;28.08;50.66;95746.84;5017663;28;20381;-30
2023/08/02 05:08:24;;;;;;;17.30;5.43;;;;;;;28.21;49.65;95746.66;5018267;28;20112;-30
2023/08/02 05:10:49;;;;;;;15.00;5.40;;;;;;;28.14;49.78;95753.72;5022667;28;20028;-30
2023/08/02 05:13:15;;;;;;;9.60;4.38;;;;;;;28.15;50.17;95755.22;5026290;28;20026;-30
2023/08/02 05:15:40;;;;;;;13.63;5.07;;;;;;;28.18;50.13;95754.13;5025466;28;20021;-30
2023/08/02 05:18:06;;;;;;;12.45;4.15;;;;;;;28.18;49.97;95756.91;5022396;28;20018;-29
2023/08/02 05:20:32;;;;;;;13.57;4.65;;;;;;;28.22;50.09;95748.88;5021975;28;20071;-29
2023/08/02 05:22:58;;;;;;;16.40;5.75;;;;;;;28.11;50.62;95748.50;5022548;28;20377;-29
2023/08/02 05:25:31;;;;;;;16.77;5.40;;;;;;;28.17;50.45;95749.06;5025072;28;20022;-29
2023/08/02 05:27:56;;;;;;;9.43;4.38;;;;;;;28.07;50.80;95753.72;5017496;28;20025;-30
2023/08/02 05:30:22;;;;;;;40.42;7.97;;;;;;;28.23;50.44;95753.16;5022103;28;20390;-30
2023/08/02 05:32:48;;;;;;;284.33;27.08;;;;;;;28.16;50.68;95759.47;5020522;28;20024;-30
2023/08/02 05:35:14;;;;;;;256.02;28.10;;;;;;;28.13;50.93;95765.44;5022485;28;20489;-31
2023/08/02 05:37:40;;;;;;;282.98;31.15;;;;;;;28.32;50.17;95762.25;5018621;28;20025;-30
2023/08/02 05:40:06;;;;;;;317.80;30.05;;;;;;;28.16;50.74;95770.63;5024338;28;20137;-30
2023/08/02 05:42:31;;;;;;;255.20;24.75;;;;;;;28.33;50.31;95760.94;5028875;28;20037;-30
2023/08/02 05:44:57;;;;;;;151.43;15.88;;;;;;;28.26;50.82;95768.03;5020335;28;20033;-30
2023/08/02 05:47:22;;;;;;;61.47;8.88;;;;;;;28.33;50.39;95766.53;5016611;28;20034;-29
2023/08/02 05:49:48;;;;;;;62.03;9.50;;;;;;;28.10;51.07;95763.75;5020987;28;20104;-30
2023/08/02 05:52:14;;;;;;;50.13;8.38;;;;;;;28.14;51.06;95764.88;5028194;28;20420;-29
2023/08/02 05:54:40;;;;;;;24.20;6.78;;;;;;;28.30;50.43;95770.44;5016413;28;20033;-29
2023/08/02 05:57:07;;;;;;;23.40;6.70;;;;;;;28.19;51.58;95761.16;5019904;28;20029;-29
2023/08/02 05:59:32;;;;;;;23.33;5.72;;;;;;;28.29;50.87;95763.38;5021808;28;20021;-29
2023/08/02 06:01:57;;;;;;;18.55;5.22;;;;;;;28.38;50.64;95769.13;5021411;28;20369;-31
2023/08/02 06:04:23;;;;;;;15.13;4.22;;;;;;;28.25;50.93;95769.34;5021345;28;20454;-29
2023/08/02 06:06:48;;;;;;;20.48;4.72;;;;;;;28.41;50.56;95770.06;5021394;28;20025;-29
2023/08/02 06:09:14;;;;;;;17.95;4.80;;;;;;;28.32;50.53;95768.56;5018456;28;20045;-29
2023/08/02 06:11:39;;;;;;;15.18;4.88;;;;;;;28.36;50.19;95765.41;5023819;28;20381;-30
2023/08/02 06:14:05;;;;;;;12.25;4.78;;;;;;;28.41;50.33;95772.84;5024224;28;20021;-30
2023/08/02 06:16:30;;;;;;;10.85;4.65;;;;;;;28.47;49.96;95778.94;5018644;28;20112;-29
2023/08/02 06:18:56;;;;;;;10.82;4.47;;;;;;;28.38;50.39;95779.53;5028053;28;20036;-30
2023/08/02 06:21:23;;;;;;;16.90;5.13;;;;;;;28.40;50.27;95776.94;5020930;28;20358;-30
2023/08/02 06:23:49;;;;;;;13.10;4.63;;;;;;;28.54;49.76;95772.63;5027813;28;20439;-30
2023/08/02 06:26:14;;;;;;;11.35;4.50;;;;;;;28.56;49.59;95783.97;5020969;28;20025;-29
2023/08/02 06:28:40;;;;;;;11.50;4.50;;;;;;;28.55;49.74;95779.69;5021062;28;20017;-29
2023/08/02 06:31:05;;;;;;;87.63;10.88;;;;;;;28.51;49.98;95788.44;5012742;28;20041;-29
2023/08/02 06:33:31;;;;;;;77.88;8.93;;;;;;;28.42;50.03;95791.81;5014031;28;20072;-30
2023/08/02 06:35:56;;;;;;;33.83;7.05;;;;;;;28.64;49.16;95795.09;5020971;28;20030;-29
2023/08/02 06:38:22;;;;;;;23.42;5.63;;;;;;;28.13;50.24;95802.41;5020840;28;20030;-29
2023/08/02 06:40:47;;;;;;;17.35;5.00;;;;;;;28.46;49.64;95810.94;5020979;28;20025;-29
2023/08/02 06:43:12;;;;;;;221.35;23.60;;;;;;;28.51;49.29;95804.41;5013427;28;20022;-30
2023/08/02 06:45:44;;;;;;;32.00;7.13;;;;;;;28.41;49.60;95809.09;5021250;28;20025;-29
2023/08/02 06:48:10;;;;;;;56.23;9.43;;;;;;;28.35;49.51;95812.06;5020113;28;20080;-30
2023/08/02 06:50:37;;;;;;;33.83;6.47;;;;;;;28.40;49.56;95802.03;5015507;28;20631;-29
2023/08/02 06:53:03;;;;;;;225.93;28.83;;;;;;;28.42;49.50;95808.53;5025813;28;20100;-31
2023/08/02 06:55:28;;;;;;;85.93;12.70;;;;;;;28.46;49.45;95808.13;5011980;28;20556;-29
2023/08/02 06:57:53;;;;;;;52.08;8.32;;;;;;;28.39;49.31;95806.13;5020662;28;20022;-29
2023/08/02 07:00:19;;;;;;;268.48;30.52;;;;;;;28.51;49.22;95807.22;5019604;28;20371;-29
2023/08/02 07:02:44;;;;;;;72.97;11.40;;;;;;;28.46;49.10;95800.50;5015460;28;20018;-29
2023/08/02 07:05:11;;;;;;;57.15;9.07;;;;;;;28.54;49.00;95803.31;5019198;28;20040;-29
2023/08/02 07:07:36;;;;;;;37.67;7.07;;;;;;;28.58;48.61;95806.44;5019912;28;20022;-29
2023/08/02 07:10:02;;;;;;;30.90;5.60;;;;;;;28.58;48.18;95812.00;5020740;28;20029;-29
2023/08/02 07:12:28;;;;;;;17.38;4.80;;;;;;;28.50;47.25;95814.09;5020642;28;20106;-29
2023/08/02 07:14:53;;;;;;;17.55;5.72;;;;;;;28.36;47.83;95810.03;5020974;28;20021;-29
2023/08/02 07:17:19;;;;;;;12.20;4.28;;;;;;;28.59;47.29;95816.28;5020652;28;20033;-29
2023/08/02 07:19:44;;;;;;;13.85;4.22;;;;;;;28.59;46.95;95817.03;5020517;28;20049;-29
2023/08/02 07:22:11;;;;;;;13.25;4.53;;;;;;;28.59;46.99;95811.47;5020671;28;20029;-29
2023/08/02 07:24:37;;;;;;;11.93;4.20;;;;;;;28.69;46.79;95814.41;5018484;28;20022;-30
2023/08/02 07:27:02;;;;;;;10.15;4.10;;;;;;;28.69;46.24;95811.59;5015000;28;20044;-29
2023/08/02 07:29:28;;;;;;;10.85;4.13;;;;;;;28.68;46.24;95812.94;5027301;28;20042;-29
2023/08/02 07:31:53;;;;;;;7.57;4.13;;;;;;;28.69;46.06;95814.41;5027298;28;20032;-30
2023/08/02 07:34:18;;;;;;;11.35;3.58;;;;;;;28.77;46.06;95822.75;5013208;28;20022;-29
2023/08/02 07:36:44;;;;;;;8.40;4.22;;;;;;;28.69;45.35;95822.78;5012508;28;20026;-29
2023/08/02 07:39:09;;;;;;;11.25;3.78;;;;;;;28.71;44.98;95822.22;5023719;28;20018;-30
2023/08/02 07:41:35;;;;;;;8.57;3.70;;;;;;;28.81;44.86;95817.56;5027329;28;20473;-30
2023/08/02 07:44:00;;;;;;;9.35;3.53;;;;;;;28.73;44.62;95817.56;5021018;28;20029;-29
2023/08/02 07:46:26;;;;;;;8.25;3.80;;;;;;;28.74;44.39;95819.03;5023985;28;20032;-30
2023/08/02 07:48:51;;;;;;;9.23;4.03;;;;;;;28.72;43.74;95815.31;5016787;28;20045;-29
2023/08/02 07:51:18;;;;;;;9.48;3.92;;;;;;;28.86;44.39;95820.16;5016647;28;20030;-29
2023/08/02 07:53:43;;;;;;;5.63;3.08;;;;;;;28.94;44.21;95822.91;5026202;28;20367;-31
2023/08/02 07:56:09;;;;;;;8.70;3.65;;;;;;;28.94;43.43;95822.91;5028177;28;20033;-29
2023/08/02 07:58:34;;;;;;;8.80;3.90;;;;;;;28.99;43.89;95816.38;5023427;28;20025;-29
2023/08/02 08:01:08;;;;;;;8.32;3.88;;;;;;;29.15;43.37;95820.59;5022125;28;20382;-29
2023/08/02 08:03:34;;;;;;;8.45;3.70;;;;;;;29.05;43.41;95821.75;5023606;28;20489;-29
2023/08/02 08:06:00;;;;;;;6.32;3.45;;;;;;;29.07;43.92;95821.91;5025747;28;20072;-29
2023/08/02 08:08:25;;;;;;;9.85;3.60;;;;;;;29.06;43.64;95814.84;5027259;28;20057;-30
2023/08/02 08:10:52;;;;;;;7.30;3.58;;;;;;;29.12;43.43;95813.34;5023211;28;20063;-29
2023/08/02 08:13:17;;;;;;;8.95;3.40;;;;;;;29.09;43.46;95819.31;5027866;28;20026;-29
2023/08/02 08:15:43;;;;;;;8.18;4.05;;;;;;;29.16;43.11;95818.53;5026233;28;20029;-29
2023/08/02 08:18:09;;;;;;;9.55;4.13;;;;;;;29.19;42.51;95820.94;5016208;28;20018;-33
2023/08/02 08:20:34;;;;;;;7.30;3.33;;;;;;;29.25;42.80;95817.94;5023778;28;20025;-29
2023/08/02 08:23:00;;;;;;;8.32;3.45;;;;;;;29.31;43.04;95826.81;5023235;28;20386;-29
2023/08/02 08:25:25;;;;;;;4.88;3.28;;;;;;;29.40;42.54;95825.53;5023080;28;20100;-29
2023/08/02 08:27:51;;;;;;;12.82;4.10;;;;;;;29.28;42.82;95833.56;5022745;28;20022;-29
2023/08/02 08:30:16;;;;;;;6.10;3.22;;;;;;;29.43;42.75;95827.91;5022891;28;20026;-29
2023/08/02 08:32:42;;;;;;;8.73;3.13;;;;;;;29.43;42.40;95832.75;5020884;28;20120;-30
2023/08/02 08:35:09;;;;;;;7.32;3.60;;;;;;;29.45;42.77;95827.34;5025467;28;20021;-29
2023/08/02 08:37:35;;;;;;;5.78;3.17;;;;;;;29.46;42.25;95823.25;5019817;28;20026;-29
2023/08/02 08:40:00;;;;;;;6.78;3.00;;;;;;;29.47;42.57;95825.47;5026227;28;20133;-29
2023/08/02 08:42:26;;;;;;;10.07;3.30;;;;;;;29.48;42.64;95824.16;5029951;28;20481;-29
2023/08/02 08:44:54;;;;;;;8.30;3.45;;;;;;;29.40;42.62;95817.16;5022633;28;20362;-29
2023/08/02 08:47:21;;;;;;;7.93;3.70;;;;;;;29.51;42.51;95831.41;5029229;28;20025;-29
2023/08/02 08:49:47;;;;;;;6.75;3.53;;;;;;;29.51;42.65;95831.41;5025554;28;20084;-29
2023/08/02 08:52:14;;;;;;;9.18;3.88;;;;;;;29.61;42.87;95828.75;5019106;28;20481;-31
2023/08/02 08:54:44;;;;;;;8.88;5.05;;;;;;;29.61;42.67;95837.13;5024910;28;20482;-29
2023/08/02 08:57:10;;;;;;;10.93;4.50;;;;;;;29.53;42.75;95842.03;5020066;28;20028;-29
2023/08/02 08:59:36;;;;;;;7.38;4.75;;;;;;;29.52;42.48;95835.69;5030596;28;20528;-30
2023/08/02 09:02:03;;;;;;;8.13;4.40;;;;;;;29.34;43.08;95839.66;5025520;28;20104;-29
2023/08/02 09:04:32;;;;;;;7.57;3.97;;;;;;;29.40;43.12;95848.63;5024366;28;20028;-29
2023/08/02 09:06:58;;;;;;;16.45;4.47;;;;;;;29.73;42.97;95845.81;5024717;28;20120;-29
2023/08/02 09:09:23;;;;;;;7.72;3.40;;;;;;;29.57;43.10;95845.16;5025542;28;20210;-29
2023/08/02 09:11:49;;;;;;;7.57;3.60;;;;;;;29.65;42.40;95846.59;5023099;28;20026;-29
2023/08/02 09:14:16;;;;;;;7.25;3.55;;;;;;;29.57;42.61;95847.94;5025386;28;20542;-30
2023/08/02 09:16:56;;;;;;;7.15;3.30;;;;;;;29.64;41.88;95847.16;5024679;28;20108;-29
2023/08/02 09:19:23;;;;;;;7.22;3.30;;;;;;;29.62;42.23;95850.53;5014821;28;20026;-29
2023/08/02 09:22:07;;;;;;;5.97;2.78;;;;;;;29.58;42.17;95852.97;5021731;28;20037;-30
2023/08/02 09:24:37;;;;;;;8.93;2.90;;;;;;;29.70;40.62;95849.72;5021881;28;20058;-29
2023/08/02 09:27:11;;;;;;;9.68;3.03;;;;;;;29.70;40.17;95858.13;5021444;28;20021;-30
2023/08/02 09:29:57;;;;;;;9.88;3.10;;;;;;;29.67;40.70;95862.06;5013465;28;20021;-30
2023/08/02 09:32:24;;;;;;;14.45;3.15;;;;;;;29.77;40.71;95852.50;5024997;28;20036;-30
2023/08/02 09:34:52;;;;;;;11.38;3.33;;;;;;;29.74;40.33;95856.41;5026448;28;20029;-29
2023/08/02 09:37:31;;;;;;;8.95;2.78;;;;;;;29.63;40.01;95860.41;5015744;28;20025;-29
2023/08/02 09:39:57;;;;;;;8.70;2.90;;;;;;;29.65;40.00;95857.78;5025336;28;20109;-31
2023/08/02 09:42:27;;;;;;;6.43;2.90;;;;;;;29.73;40.03;95862.56;5016740;28;20109;-30
2023/08/02 09:44:58;;;;;;;7.30;3.00;;;;;;;29.67;40.00;95866.31;5024602;28;20029;-29
2023/08/02 09:47:26;;;;;;;6.85;3.10;;;;;;;29.67;39.91;95865.59;5016480;28;20018;-29
2023/08/02 09:50:11;;;;;;;4.90;3.05;;;;;;;29.71;40.44;95877.13;5020383;28;20068;-29
2023/08/02 09:52:39;;;;;;;7.55;3.28;;;;;;;29.76;40.50;95867.03;5028959;28;20034;-30
2023/08/02 09:55:07;;;;;;;8.63;2.72;;;;;;;29.84;40.37;95865.66;5026817;28;20567;-29
2023/08/02 09:57:33;;;;;;;7.68;3.00;;;;;;;29.73;40.53;95868.16;5015952;28;20018;-29
2023/08/02 10:00:04;;;;;;;18.92;4.13;;;;;;;29.74;40.55;95864.06;5024406;28;20083;-30
2023/08/02 10:02:31;;;;;;;10.95;3.00;;;;;;;29.82;40.11;95870.34;5024098;28;20021;-30
2023/08/02 10:04:59;;;;;;;10.88;3.97;;;;;;;29.81;40.17;95866.78;5017300;28;20021;-30
2023/08/02 10:07:53;;;;;;;6.68;3.42;;;;;;;29.81;39.98;95861.19;5024435;28;20021;-29
2023/08/02 10:10:27;;;;;;;8.45;3.00;;;;;;;29.75;40.37;95866.28;5024151;28;20489;-29
2023/08/02 10:12:56;;;;;;;8.27;3.42;;;;;;;29.80;39.88;95870.16;5022313;28;20087;-29
2023/08/02 10:15:22;;;;;;;5.25;3.08;;;;;;;29.81;40.42;95872.38;5019256;28;20017;-30
2023/08/02 10:17:48;;;;;;;9.98;3.75;;;;;;;29.75;40.27;95871.13;5016250;28;20029;-29
2023/08/02 10:20:14;;;;;;;10.85;3.42;;;;;;;29.88;40.48;95857.63;5021275;28;20022;-29
2023/08/02 10:22:43;;;;;;;7.75;3.88;;;;;;;29.90;40.43;95865.44;5020764;28;20034;-30
2023/08/02 10:25:11;;;;;;;12.15;3.92;;;;;;;29.88;40.52;95856.88;5021275;28;20124;-29
2023/08/02 10:27:37;;;;;;;11.60;3.47;;;;;;;29.86;40.75;95865.84;5019458;28;20024;-29
2023/08/02 10:30:04;;;;;;;9.07;4.07;;;;;;;29.89;40.38;95863.97;5023265;28;20389;-29
2023/08/02 10:32:30;;;;;;;10.45;3.28;;;;;;;29.93;40.40;95867.81;5024794;28;20347;-30
2023/08/02 10:34:56;;;;;;;9.98;3.35;;;;;;;30.02;40.68;95858.13;5024014;28;20436;-30
2023/08/02 10:37:22;;;;;;;10.63;3.97;;;;;;;30.12;40.53;95853.38;5016032;28;20036;-29
2023/08/02 10:39:48;;;;;;;61.85;7.22;;;;;;;29.99;40.60;95856.47;5025575;28;20025;-30
2023/08/02 10:42:18;;;;;;;8.70;3.35;;;;;;;29.96;40.60;95852.75;5028174;28;20112;-29
2023/08/02 10:44:56;;;;;;;20.00;4.45;;;;;;;29.96;40.73;95852.00;5017696;28;20017;-29
2023/08/02 10:47:30;;;;;;;19.55;4.20;;;;;;;29.98;40.66;95860.56;5015901;28;20113;-29
2023/08/02 10:49:57;;;;;;;12.85;4.00;;;;;;;30.01;40.63;95842.66;5019397;28;20029;-29
2023/08/02 10:52:42;;;;;;;9.85;3.53;;;;;;;29.94;40.92;95841.34;5020371;28;20026;-29
2023/08/02 10:55:18;;;;;;;7.68;3.33;;;;;;;30.15;40.11;95843.84;5013975;28;20029;-29
2023/08/02 10:57:55;;;;;;;8.02;3.17;;;;;;;30.12;40.64;95847.78;5027824;28;20017;-29
2023/08/02 11:00:26;;;;;;;8.38;3.70;;;;;;;30.07;40.14;95843.16;5027618;28;20044;-30
2023/08/02 11:02:52;;;;;;;6.85;3.50;;;;;;;30.05;40.26;95848.56;5019862;28;20029;-29
2023/08/02 11:05:36;;;;;;;8.88;3.35;;;;;;;30.04;39.90;95841.53;5020944;28;20029;-30
2023/08/02 11:08:02;;;;;;;7.43;2.95;;;;;;;30.08;40.02;95839.03;5020758;28;20022;-29
2023/08/02 11:10:28;;;;;;;9.60;3.60;;;;;;;30.14;40.14;95836.78;5020724;28;20544;-30
2023/08/02 11:12:55;;;;;;;10.27;3.28;;;;;;;30.12;40.17;95847.78;5025349;28;20112;-30
2023/08/02 11:15:21;;;;;;;13.40;3.38;;;;;;;30.19;39.75;95844.16;5016506;28;20044;-29
2023/08/02 11:17:56;;;;;;;13.27;3.78;;;;;;;30.27;39.51;95846.91;5023953;28;20030;-29
2023/08/02 11:20:28;;;;;;;11.55;3.38;;;;;;;30.18;39.65;95834.28;5024869;28;20083;-30
2023/08/02 11:22:54;;;;;;;9.77;3.63;;;;;;;30.14;39.39;95842.38;5024384;28;20017;-29
2023/08/02 11:25:20;;;;;;;8.77;3.30;;;;;;;30.28;38.39;95843.56;5024485;28;20457;-29
2023/08/02 11:27:46;;;;;;;9.52;3.35;;;;;;;30.25;39.04;95839.09;5024257;28;20048;-30